Time;durP1;ratioP1;P1;durP2;ratioP2;P2;SDS_P1;SDS_P2;PMS_P1;PMS_P2;Temp;Humidity;BMP_temperature;BMP_pressure;BME280_temperature;BME280_humidity;BME280_pressure;Samples;Min_cycle;Max_cycle;Signal;HPM_P1;HPM_P2
2022/01/17 00:01:56;;;;;;;7.03;5.00;;;9.40;64.50;;;;;;5028160;28;20492;-71
2022/01/17 00:04:23;;;;;;;8.60;4.88;;;9.30;64.80;;;;;;5025932;28;20976;-71
2022/01/17 00:06:49;;;;;;;7.55;4.80;;;9.20;64.30;;;;;;5036328;28;20041;-71
2022/01/17 00:09:15;;;;;;;6.53;4.47;;;9.30;64.40;;;;;;5022616;28;20110;-71
2022/01/17 00:11:44;;;;;;;9.23;4.25;;;9.30;63.80;;;;;;5029658;28;20041;-71
2022/01/17 00:14:14;;;;;;;9.70;4.32;;;9.40;63.30;;;;;;5037905;28;20065;-71
2022/01/17 00:16:47;;;;;;;6.93;3.72;;;9.30;63.20;;;;;;5016773;28;20033;-71
2022/01/17 00:21:48;;;;;;;6.20;4.00;;;9.30;60.20;;;;;;5026541;28;19956;-71
2022/01/17 00:24:16;;;;;;;6.70;3.83;;;9.50;62.10;;;;;;5023717;28;22056;-72
2022/01/17 00:26:41;;;;;;;6.18;3.97;;;9.50;61.60;;;;;;5030498;28;20037;-71
2022/01/17 00:29:07;;;;;;;7.30;4.00;;;9.50;60.80;;;;;;5028392;28;20049;-72
2022/01/17 00:31:33;;;;;;;6.30;4.20;;;9.50;62.20;;;;;;5035792;28;20067;-71
2022/01/17 00:33:59;;;;;;;6.68;3.85;;;9.30;63.50;;;;;;5039567;28;20124;-71
2022/01/17 00:36:26;;;;;;;6.10;3.78;;;9.30;62.70;;;;;;5042292;28;21742;-72
2022/01/17 00:38:52;;;;;;;6.03;3.70;;;9.20;62.90;;;;;;5042383;28;20072;-72
2022/01/17 00:41:18;;;;;;;7.65;4.60;;;9.10;63.30;;;;;;5046772;28;20045;-71
2022/01/17 00:43:45;;;;;;;6.90;4.47;;;9.00;63.40;;;;;;5043547;28;20049;-71
2022/01/17 00:46:12;;;;;;;7.25;4.00;;;8.80;63.90;;;;;;5045790;28;20040;-71
2022/01/17 00:48:38;;;;;;;6.80;4.15;;;8.70;64.10;;;;;;5045016;28;20396;-72
2022/01/17 00:51:04;;;;;;;6.35;4.40;;;8.60;64.50;;;;;;5058515;28;20048;-71
2022/01/17 00:53:30;;;;;;;7.80;4.15;;;8.40;63.90;;;;;;5039286;28;20049;-72
2022/01/17 00:55:56;;;;;;;6.97;4.20;;;8.40;64.70;;;;;;5038220;28;20120;-72
2022/01/17 00:58:23;;;;;;;8.40;3.90;;;8.50;64.10;;;;;;5036810;28;20227;-71
2022/01/17 01:00:49;;;;;;;6.88;3.85;;;8.60;63.70;;;;;;5044922;28;20098;-71
2022/01/17 01:03:15;;;;;;;8.25;4.93;;;8.70;63.90;;;;;;5040362;28;20038;-70
2022/01/17 01:05:41;;;;;;;6.85;4.25;;;8.80;63.70;;;;;;5036850;28;20049;-71
2022/01/17 01:08:08;;;;;;;8.20;4.85;;;8.70;64.10;;;;;;5036346;28;20033;-71
2022/01/17 01:10:34;;;;;;;6.72;4.28;;;8.60;64.90;;;;;;5045041;28;20072;-71
2022/01/17 01:13:01;;;;;;;7.28;4.45;;;8.50;64.60;;;;;;5041937;28;20387;-72
2022/01/17 01:15:45;;;;;;;8.00;4.18;;;8.60;64.70;;;;;;5052704;28;20032;-72
2022/01/17 01:18:29;;;;;;;8.65;4.20;;;8.70;64.20;;;;;;5052630;28;20036;-71
2022/01/17 01:29:10;;;;;;;5.82;3.17;;;8.80;63.10;;;;;;5040266;28;20063;-71
2022/01/17 01:31:52;;;;;;;5.20;3.25;;;8.80;61.70;;;;;;5040289;28;20077;-72
2022/01/17 01:34:28;;;;;;;6.22;3.40;;;8.70;61.70;;;;;;5039467;28;20067;-73
2022/01/17 01:36:54;;;;;;;7.60;3.75;;;8.80;62.40;;;;;;5042885;28;20033;-72
2022/01/17 01:39:23;;;;;;;5.63;3.85;;;8.70;62.60;;;;;;5041808;28;20492;-77
2022/01/17 01:41:51;;;;;;;6.43;3.83;;;8.70;63.10;;;;;;5043405;28;20033;-76
2022/01/17 01:44:20;;;;;;;6.63;3.42;;;8.60;62.90;;;;;;5037618;28;20055;-72
2022/01/17 01:46:49;;;;;;;5.95;3.63;;;8.60;62.50;;;;;;5036946;28;20051;-74
2022/01/17 01:49:17;;;;;;;6.10;3.78;;;8.60;62.50;;;;;;5008558;28;20120;-74
2022/01/17 01:51:48;;;;;;;6.07;3.42;;;8.80;61.70;;;;;;5040114;28;20040;-72
2022/01/17 01:54:15;;;;;;;5.25;3.50;;;8.70;61.90;;;;;;5033868;28;20480;-76
2022/01/17 01:56:49;;;;;;;5.20;3.42;;;8.80;61.30;;;;;;5033432;28;20037;-72
2022/01/17 01:59:19;;;;;;;5.85;3.20;;;8.90;60.80;;;;;;5025845;28;20045;-73
2022/01/17 02:01:47;;;;;;;9.20;3.42;;;8.80;60.70;;;;;;5033889;28;20032;-73
2022/01/17 02:04:15;;;;;;;4.60;3.38;;;8.80;61.20;;;;;;5038081;28;20041;-73
2022/01/17 02:06:41;;;;;;;5.80;3.63;;;8.80;60.60;;;;;;5042582;28;20033;-76
2022/01/17 02:09:08;;;;;;;6.50;3.65;;;8.80;60.20;;;;;;5046199;28;20495;-75
2022/01/17 02:11:37;;;;;;;4.63;3.03;;;9.00;60.50;;;;;;5036845;28;20473;-72
2022/01/17 02:14:04;;;;;;;5.50;2.95;;;9.10;59.90;;;;;;5038422;28;20054;-70
2022/01/17 02:16:31;;;;;;;5.10;3.33;;;9.00;59.60;;;;;;5030233;28;20595;-73
2022/01/17 02:18:58;;;;;;;4.68;3.03;;;9.00;60.50;;;;;;5025758;28;20045;-72
2022/01/17 02:23:57;;;;;;;;;;;8.80;60.00;;;;;;5036714;28;20052;-77
2022/01/17 02:26:23;;;;;;;5.85;3.15;;;8.80;60.20;;;;;;5044018;28;20312;-76
2022/01/17 02:28:53;;;;;;;4.82;2.85;;;8.80;60.10;;;;;;5037645;28;20037;-70
2022/01/17 02:31:21;;;;;;;4.97;3.08;;;8.90;59.90;;;;;;5039615;28;20487;-72
2022/01/17 02:33:50;;;;;;;5.20;3.28;;;8.90;60.50;;;;;;5039721;28;20033;-72
2022/01/17 02:36:16;;;;;;;5.05;3.47;;;8.80;60.90;;;;;;5042386;28;20033;-72
2022/01/17 02:38:43;;;;;;;5.80;3.53;;;8.80;60.80;;;;;;5045399;28;20045;-75
2022/01/17 02:41:11;;;;;;;7.10;3.67;;;8.70;61.90;;;;;;5047273;28;21588;-76
2022/01/17 02:43:38;;;;;;;6.47;3.78;;;8.70;61.80;;;;;;5044798;28;20037;-77
2022/01/17 02:48:36;;;;;;;5.03;3.13;;;8.70;61.50;;;;;;5044679;28;20107;-77
2022/01/17 02:51:04;;;;;;;6.35;3.03;;;8.80;61.10;;;;;;5039128;28;20063;-71
2022/01/17 02:53:35;;;;;;;7.38;3.22;;;9.00;59.90;;;;;;5051022;28;20080;-76
2022/01/17 02:56:04;;;;;;;6.50;3.58;;;8.90;60.40;;;;;;5040315;28;20045;-74
2022/01/17 02:58:35;;;;;;;6.20;3.35;;;9.10;60.30;;;;;;5024826;28;20048;-73
2022/01/17 03:01:15;;;;;;;5.70;3.58;;;9.10;61.00;;;;;;5045946;28;20124;-73
2022/01/17 03:03:42;;;;;;;6.65;4.20;;;9.00;61.50;;;;;;5044121;28;20033;-72
2022/01/17 03:06:09;;;;;;;6.45;3.83;;;9.00;61.90;;;;;;5027549;28;20034;-73
2022/01/17 03:08:38;;;;;;;7.13;4.50;;;8.90;62.10;;;;;;5047850;28;20037;-73
2022/01/17 03:11:07;;;;;;;6.07;3.83;;;8.80;62.40;;;;;;5038763;28;20041;-71
2022/01/17 03:13:37;;;;;;;7.50;4.30;;;8.90;62.50;;;;;;5045869;28;20029;-71
2022/01/17 03:16:14;;;;;;;6.95;3.90;;;8.90;62.00;;;;;;5045009;28;20041;-76
2022/01/17 03:18:50;;;;;;;6.57;3.70;;;9.00;61.70;;;;;;5058624;28;20047;-73
2022/01/17 03:21:20;;;;;;;6.40;4.10;;;9.00;61.60;;;;;;5007224;28;20037;-77
2022/01/17 03:23:49;;;;;;;6.78;3.80;;;9.00;61.80;;;;;;5045658;28;20041;-71
2022/01/17 03:26:15;;;;;;;7.00;4.28;;;9.00;62.80;;;;;;5043792;28;20037;-72
2022/01/17 03:28:41;;;;;;;7.13;3.85;;;9.00;63.20;;;;;;5050360;28;20029;-71
2022/01/17 03:31:09;;;;;;;7.93;3.97;;;8.90;62.70;;;;;;5040170;28;20342;-75
2022/01/17 03:33:35;;;;;;;7.38;4.00;;;8.80;63.00;;;;;;5029103;28;20460;-71
2022/01/17 03:36:03;;;;;;;6.70;4.05;;;8.90;62.70;;;;;;5015441;28;20083;-77
2022/01/17 03:38:32;;;;;;;8.30;4.05;;;9.00;62.60;;;;;;5037414;28;20101;-72
2022/01/17 03:41:02;;;;;;;5.13;3.45;;;8.90;63.40;;;;;;5043812;28;20033;-71
2022/01/17 03:43:29;;;;;;;6.70;3.60;;;8.90;63.40;;;;;;5045451;28;20033;-72
2022/01/17 03:45:57;;;;;;;7.15;4.00;;;9.00;63.00;;;;;;5032679;28;20052;-71
2022/01/17 03:48:24;;;;;;;5.32;3.30;;;9.00;63.10;;;;;;5029334;28;20145;-77
2022/01/17 03:50:51;;;;;;;5.60;3.45;;;8.90;63.00;;;;;;5041441;28;20030;-71
2022/01/17 03:53:18;;;;;;;8.25;4.05;;;9.00;63.30;;;;;;5047834;28;20040;-74
2022/01/17 03:55:44;;;;;;;9.13;4.03;;;9.00;64.30;;;;;;5041155;28;20443;-72
2022/01/17 03:58:10;;;;;;;6.35;3.83;;;8.90;65.10;;;;;;5030911;28;20365;-71
2022/01/17 04:00:43;;;;;;;5.45;3.88;;;8.90;65.60;;;;;;5026814;28;20037;-77
2022/01/17 04:03:11;;;;;;;;;;;8.90;66.00;;;;;;5041565;28;20029;-74
2022/01/17 04:05:37;;;;;;;7.00;4.30;;;8.90;65.90;;;;;;5046499;28;19920;-71
2022/01/17 04:08:03;;;;;;;7.20;4.20;;;8.80;65.90;;;;;;5027988;28;20037;-75
2022/01/17 04:10:31;;;;;;;6.28;4.00;;;8.80;65.50;;;;;;5036507;28;20036;-71
2022/01/17 04:13:04;;;;;;;7.18;4.00;;;8.80;64.90;;;;;;5050998;28;20053;-76
2022/01/17 04:15:46;;;;;;;7.35;4.50;;;8.80;64.50;;;;;;5042060;28;20046;-71
2022/01/17 04:18:16;;;;;;;6.72;4.45;;;8.80;64.20;;;;;;5038648;28;20041;-77
2022/01/17 04:20:42;;;;;;;6.95;4.47;;;8.90;63.80;;;;;;5047792;28;20037;-76
2022/01/17 04:23:12;;;;;;;7.63;4.22;;;8.80;64.50;;;;;;5041496;28;20041;-70
2022/01/17 04:25:40;;;;;;;6.93;4.43;;;8.80;65.00;;;;;;5040221;28;20484;-71
2022/01/17 04:28:10;;;;;;;6.45;4.65;;;8.70;65.50;;;;;;5040578;28;20577;-70
2022/01/17 04:30:36;;;;;;;8.00;4.95;;;8.70;65.30;;;;;;5043827;28;20034;-71
2022/01/17 04:33:03;;;;;;;8.75;4.60;;;8.60;65.30;;;;;;5044503;28;20045;-76
2022/01/17 04:35:30;;;;;;;10.68;4.57;;;8.70;64.90;;;;;;5032340;28;20132;-72
2022/01/17 04:38:09;;;;;;;7.50;4.50;;;8.80;64.70;;;;;;5046629;28;20056;-75
2022/01/17 04:40:39;;;;;;;6.40;4.03;;;8.90;63.70;;;;;;5034662;28;20026;-75
2022/01/17 04:43:16;;;;;;;7.95;4.03;;;8.90;64.00;;;;;;5040727;28;20058;-76
2022/01/17 04:45:46;;;;;;;8.18;4.75;;;8.90;63.90;;;;;;5009107;28;20026;-74
2022/01/17 04:48:13;;;;;;;6.43;4.40;;;8.90;64.30;;;;;;5039445;28;20516;-76
2022/01/17 04:50:39;;;;;;;7.18;4.13;;;8.90;64.10;;;;;;5039358;28;20040;-72
2022/01/17 04:53:08;;;;;;;8.90;4.72;;;8.80;64.40;;;;;;5038030;28;20150;-77
2022/01/17 04:55:36;;;;;;;6.82;4.13;;;8.80;64.70;;;;;;5022331;28;20040;-76
2022/01/17 04:58:02;;;;;;;8.82;5.57;;;8.80;65.50;;;;;;5041015;28;20103;-72
2022/01/17 05:00:29;;;;;;;8.63;5.20;;;8.80;65.70;;;;;;5039157;28;20048;-77
2022/01/17 05:02:55;;;;;;;7.72;4.97;;;8.70;66.00;;;;;;5023874;28;20037;-70
2022/01/17 05:05:21;;;;;;;10.27;6.20;;;8.70;66.30;;;;;;5044345;28;20041;-76
2022/01/17 05:07:48;;;;;;;8.75;5.05;;;8.70;66.90;;;;;;5042820;28;20037;-72
2022/01/17 05:10:17;;;;;;;9.25;5.65;;;8.60;66.70;;;;;;5043987;28;20037;-71
2022/01/17 05:12:45;;;;;;;8.52;5.10;;;8.70;66.50;;;;;;5043353;28;20060;-73
2022/01/17 05:15:25;;;;;;;10.45;5.13;;;8.70;66.70;;;;;;5040124;28;20083;-72
2022/01/17 05:20:42;;;;;;;8.30;4.97;;;8.80;66.80;;;;;;5044794;28;20093;-71
2022/01/17 05:23:10;;;;;;;9.43;5.72;;;8.80;66.40;;;;;;5047070;28;20399;-75
2022/01/17 05:25:36;;;;;;;10.23;5.70;;;8.80;66.10;;;;;;5045147;28;20078;-76
2022/01/17 05:28:04;;;;;;;9.27;5.68;;;8.80;66.00;;;;;;5038793;28;20048;-73
2022/01/17 05:30:30;;;;;;;10.73;5.72;;;8.80;66.00;;;;;;5047868;28;20033;-73
2022/01/17 05:32:58;;;;;;;7.65;5.45;;;8.90;65.80;;;;;;5039613;28;20045;-75
2022/01/17 05:35:25;;;;;;;8.18;5.55;;;9.00;65.50;;;;;;5040586;28;20060;-71
2022/01/17 05:37:51;;;;;;;9.70;5.75;;;9.00;65.70;;;;;;5032677;28;20405;-73
2022/01/17 05:40:18;;;;;;;8.70;5.43;;;9.00;66.00;;;;;;5038580;28;20037;-71
2022/01/17 05:42:44;;;;;;;10.68;6.07;;;8.90;66.50;;;;;;5041579;28;20053;-77
2022/01/17 05:45:13;;;;;;;8.80;5.40;;;8.90;66.80;;;;;;5043154;28;20083;-72
2022/01/17 05:47:40;;;;;;;9.15;5.38;;;8.80;67.30;;;;;;5037681;28;20036;-73
2022/01/17 05:50:08;;;;;;;8.75;4.88;;;8.70;67.70;;;;;;5036515;28;20033;-73
2022/01/17 05:52:35;;;;;;;10.30;5.88;;;8.70;67.50;;;;;;5032867;28;20511;-71
2022/01/17 05:55:05;;;;;;;10.43;5.57;;;8.70;67.70;;;;;;5041801;28;20066;-76
2022/01/17 05:57:31;;;;;;;9.18;5.65;;;8.70;68.20;;;;;;5039119;28;20041;-73
2022/01/17 06:00:00;;;;;;;8.25;5.50;;;8.60;68.40;;;;;;5042642;28;20052;-72
2022/01/17 06:02:26;;;;;;;7.90;4.80;;;8.50;68.40;;;;;;5031813;28;20049;-72
2022/01/17 06:04:55;;;;;;;9.77;5.60;;;8.60;68.50;;;;;;5043106;28;20120;-74
2022/01/17 06:07:21;;;;;;;9.38;5.50;;;8.60;68.70;;;;;;5040090;28;20041;-71
2022/01/17 06:09:48;;;;;;;9.93;6.05;;;8.50;68.60;;;;;;5041080;28;20036;-72
2022/01/17 06:12:14;;;;;;;9.52;5.85;;;8.40;68.60;;;;;;5040399;28;20094;-72
2022/01/17 06:14:40;;;;;;;8.45;5.10;;;8.50;68.60;;;;;;5038106;28;20124;-72
2022/01/17 06:17:08;;;;;;;8.40;5.53;;;8.40;68.60;;;;;;5031235;28;20052;-77
2022/01/17 06:19:35;;;;;;;8.27;4.95;;;8.50;67.60;;;;;;5044093;28;20503;-72
2022/01/17 06:22:02;;;;;;;10.13;5.63;;;8.60;67.80;;;;;;5046306;28;20033;-72
2022/01/17 06:24:28;;;;;;;8.45;5.45;;;8.60;68.40;;;;;;5024075;28;20047;-71
2022/01/17 06:26:55;;;;;;;8.45;5.65;;;8.60;68.20;;;;;;5038318;28;20083;-76
2022/01/17 06:29:22;;;;;;;7.82;5.43;;;8.50;68.40;;;;;;5038075;28;20099;-73
2022/01/17 06:31:48;;;;;;;11.68;5.75;;;8.40;68.80;;;;;;5027919;28;20473;-76
2022/01/17 06:34:15;;;;;;;8.77;5.68;;;8.40;69.30;;;;;;5040319;28;20049;-73
2022/01/17 06:36:42;;;;;;;9.85;5.00;;;8.50;69.10;;;;;;5045354;28;20044;-73
2022/01/17 06:39:09;;;;;;;8.15;5.50;;;8.50;68.90;;;;;;5036089;28;20458;-73
2022/01/17 06:41:35;;;;;;;10.75;5.55;;;8.40;68.80;;;;;;5038019;28;20457;-71
2022/01/17 06:44:03;;;;;;;7.60;5.45;;;8.50;69.10;;;;;;5037505;28;20334;-77
2022/01/17 06:46:29;;;;;;;9.40;5.80;;;8.40;68.60;;;;;;5021953;28;20798;-72
2022/01/17 06:48:56;;;;;;;9.32;5.60;;;8.50;68.30;;;;;;5037745;28;20120;-76
2022/01/17 06:51:23;;;;;;;7.53;5.28;;;8.50;68.20;;;;;;5040262;28;20045;-72
2022/01/17 06:53:50;;;;;;;8.07;4.80;;;8.40;68.40;;;;;;5036746;28;20041;-73
2022/01/17 06:56:17;;;;;;;8.07;5.53;;;8.40;68.90;;;;;;5042545;28;20033;-72
2022/01/17 06:58:44;;;;;;;10.25;5.53;;;8.40;69.00;;;;;;5040520;28;20040;-76
2022/01/17 07:01:11;;;;;;;11.20;5.40;;;8.30;68.80;;;;;;5042084;28;20621;-72
2022/01/17 07:03:37;;;;;;;7.85;5.50;;;8.30;69.40;;;;;;5043888;28;20064;-76
2022/01/17 07:06:03;;;;;;;12.93;5.88;;;8.20;69.40;;;;;;5036574;28;20037;-71
2022/01/17 07:08:31;;;;;;;10.90;5.38;;;8.30;69.60;;;;;;5042108;28;20526;-71
2022/01/17 07:10:57;;;;;;;8.00;5.13;;;8.30;69.90;;;;;;5004706;28;20049;-73
2022/01/17 07:13:23;;;;;;;8.13;4.90;;;8.30;70.00;;;;;;5037043;28;20041;-73
2022/01/17 07:15:50;;;;;;;9.85;4.95;;;8.40;69.30;;;;;;5045173;28;20086;-77
2022/01/17 07:18:17;;;;;;;9.15;5.25;;;8.60;69.50;;;;;;5039202;28;20062;-75
2022/01/17 07:20:44;;;;;;;7.70;4.40;;;8.70;69.00;;;;;;5038217;28;20037;-76
2022/01/17 07:23:10;;;;;;;8.73;4.82;;;8.80;69.40;;;;;;5041151;28;20132;-72
2022/01/17 07:25:38;;;;;;;6.70;4.72;;;8.80;69.40;;;;;;5043194;28;20144;-71
2022/01/17 07:28:24;;;;;;;9.15;4.68;;;8.90;69.30;;;;;;5040217;28;20076;-75
2022/01/17 07:30:50;;;;;;;7.25;4.68;;;8.90;69.20;;;;;;5045904;28;20106;-72
2022/01/17 07:33:17;;;;;;;10.13;4.45;;;9.00;68.90;;;;;;5042916;28;20060;-74
2022/01/17 07:35:45;;;;;;;7.55;4.28;;;9.00;68.60;;;;;;5038920;28;20044;-73
2022/01/17 07:38:13;;;;;;;6.65;4.05;;;9.10;67.80;;;;;;5039269;28;20087;-72
2022/01/17 07:40:42;;;;;;;7.47;5.05;;;9.20;68.20;;;;;;5032446;28;20424;-76
2022/01/17 07:43:11;;;;;;;7.72;5.07;;;9.10;69.00;;;;;;5048252;28;20610;-73
2022/01/17 07:45:46;;;;;;;11.65;5.18;;;9.10;69.70;;;;;;5041924;28;20068;-75
2022/01/17 07:50:57;;;;;;;11.07;5.95;;;9.00;70.30;;;;;;5040582;28;20051;-75
2022/01/17 07:53:24;;;;;;;8.77;5.63;;;8.90;71.60;;;;;;5039378;28;20101;-77
2022/01/17 07:55:51;;;;;;;11.15;5.10;;;9.00;71.30;;;;;;5046250;28;20045;-72
2022/01/17 07:58:17;;;;;;;10.40;6.32;;;9.00;71.20;;;;;;5042404;28;20561;-76
2022/01/17 08:00:43;;;;;;;7.80;4.93;;;9.00;71.30;;;;;;5026844;28;20045;-74
2022/01/17 08:03:09;;;;;;;8.80;5.75;;;9.10;71.40;;;;;;5025915;28;20048;-75
2022/01/17 08:05:35;;;;;;;10.20;5.05;;;9.10;71.60;;;;;;5028026;28;20500;-74
2022/01/17 08:08:02;;;;;;;9.50;5.93;;;9.20;71.50;;;;;;5030785;28;20071;-76
2022/01/17 08:10:28;;;;;;;8.48;5.78;;;9.20;71.80;;;;;;5027319;28;20049;-74
2022/01/17 08:12:55;;;;;;;8.18;5.43;;;9.10;72.30;;;;;;5016443;28;20048;-74
2022/01/17 08:15:21;;;;;;;8.25;5.57;;;9.10;72.10;;;;;;5018881;28;20117;-75
2022/01/17 08:17:49;;;;;;;9.60;5.63;;;9.10;71.80;;;;;;5025887;28;20037;-77
2022/01/17 08:20:16;;;;;;;8.25;5.72;;;9.20;71.80;;;;;;5023479;28;20081;-74
2022/01/17 08:22:45;;;;;;;9.48;5.65;;;9.30;71.60;;;;;;5005775;28;20090;-73
2022/01/17 08:25:12;;;;;;;7.90;4.93;;;9.40;70.90;;;;;;5024304;28;20494;-76
2022/01/17 08:27:38;;;;;;;9.77;6.63;;;9.60;70.90;;;;;;5026508;28;20029;-74
2022/01/17 08:30:05;;;;;;;9.00;6.07;;;10.90;70.60;;;;;;5029137;28;20041;-75
2022/01/17 08:32:32;;;;;;;7.75;5.60;;;12.00;68.60;;;;;;5029046;28;20447;-75
2022/01/17 08:34:59;;;;;;;9.15;6.10;;;12.80;66.90;;;;;;5026485;28;20471;-72
2022/01/17 08:37:26;;;;;;;7.72;5.35;;;13.20;66.90;;;;;;5023770;28;20045;-77
2022/01/17 08:39:53;;;;;;;10.95;6.03;;;13.30;66.70;;;;;;5014043;28;20045;-72
2022/01/17 08:42:19;;;;;;;8.88;5.97;;;13.20;66.10;;;;;;5030517;28;20049;-75
2022/01/17 08:44:49;;;;;;;8.82;5.47;;;13.20;66.90;;;;;;5024102;28;20049;-74
2022/01/17 08:47:17;;;;;;;8.50;5.03;;;13.30;66.70;;;;;;5023734;28;20520;-72
2022/01/17 08:49:44;;;;;;;8.98;5.30;;;13.50;66.80;;;;;;5018307;28;20067;-77
2022/01/17 08:52:11;;;;;;;7.53;5.63;;;13.30;66.80;;;;;;5021983;28;20045;-71
2022/01/17 08:54:37;;;;;;;7.28;5.47;;;14.10;66.70;;;;;;5020635;28;20404;-74
2022/01/17 08:57:03;;;;;;;6.55;4.45;;;14.20;66.30;;;;;;5025573;28;20037;-76
2022/01/17 08:59:31;;;;;;;9.50;5.22;;;14.20;65.60;;;;;;5023779;28;20045;-75
2022/01/17 09:01:58;;;;;;;6.78;4.32;;;14.70;65.40;;;;;;5024481;28;20148;-74
2022/01/17 09:04:25;;;;;;;7.75;4.63;;;15.00;65.30;;;;;;5023108;28;20045;-78
2022/01/17 09:06:53;;;;;;;8.48;4.50;;;14.50;63.90;;;;;;5022375;28;20038;-71
2022/01/17 09:09:19;;;;;;;7.50;4.30;;;13.80;64.90;;;;;;5024804;28;20133;-76
2022/01/17 09:11:45;;;;;;;9.55;4.70;;;13.80;65.20;;;;;;5022452;28;20045;-74
2022/01/17 09:14:14;;;;;;;15.35;5.68;;;13.50;66.10;;;;;;5027191;28;20041;-75
2022/01/17 09:16:41;;;;;;;7.55;4.72;;;13.40;67.60;;;;;;5030619;28;20053;-72
2022/01/17 09:19:08;;;;;;;6.90;4.78;;;12.90;67.90;;;;;;5022626;28;20069;-77
2022/01/17 09:21:34;;;;;;;9.07;5.57;;;12.50;69.20;;;;;;5027935;28;20040;-71
2022/01/17 09:24:01;;;;;;;10.18;5.13;;;12.00;70.20;;;;;;5025942;28;20503;-76
2022/01/17 09:26:28;;;;;;;9.65;5.70;;;11.90;70.90;;;;;;5022629;28;20063;-77
2022/01/17 09:28:55;;;;;;;9.15;6.00;;;11.80;70.70;;;;;;5043035;28;20046;-74
2022/01/17 09:31:22;;;;;;;8.15;5.38;;;11.70;70.80;;;;;;5022810;28;20472;-76
2022/01/17 09:33:49;;;;;;;7.70;4.65;;;11.80;70.30;;;;;;5026303;28;20505;-74
2022/01/17 09:36:15;;;;;;;10.38;4.75;;;11.90;70.00;;;;;;5029236;28;20086;-76
2022/01/17 09:38:42;;;;;;;7.65;5.47;;;12.00;70.00;;;;;;5031458;28;20129;-77
2022/01/17 09:41:09;;;;;;;9.10;4.93;;;12.30;69.50;;;;;;5031759;28;20033;-72
2022/01/17 09:43:36;;;;;;;7.93;4.88;;;12.90;69.10;;;;;;5041555;28;20057;-77
2022/01/17 09:46:02;;;;;;;6.50;3.92;;;13.30;68.30;;;;;;5031926;28;20083;-74
2022/01/17 09:48:37;;;;;;;11.50;4.70;;;13.60;67.10;;;;;;5030333;28;20104;-76
2022/01/17 09:51:41;;;;;;;15.07;5.65;;;14.10;66.50;;;;;;5024398;28;20052;-77
2022/01/17 09:54:10;;;;;;;8.32;4.65;;;14.30;66.60;;;;;;5025092;28;20045;-75
2022/01/17 09:56:38;;;;;;;8.25;4.55;;;14.40;66.00;;;;;;5021819;28;20052;-74
2022/01/17 09:59:05;;;;;;;13.38;5.50;;;14.30;66.10;;;;;;5020474;28;20581;-73
2022/01/17 10:01:32;;;;;;;8.98;4.47;;;14.50;66.90;;;;;;5024679;28;20118;-76
2022/01/17 10:04:02;;;;;;;8.15;4.53;;;14.60;65.60;;;;;;5029087;28;20052;-72
2022/01/17 10:06:28;;;;;;;7.85;4.60;;;14.60;66.00;;;;;;5021545;28;20045;-73
2022/01/17 10:09:17;;;;;;;7.60;4.28;;;14.50;65.50;;;;;;5023017;28;20051;-73
2022/01/17 10:12:04;;;;;;;6.63;4.50;;;14.80;65.40;;;;;;5041116;28;20111;-77
2022/01/17 10:14:39;;;;;;;7.25;4.10;;;14.90;64.00;;;;;;5039462;28;20049;-76
2022/01/17 10:17:13;;;;;;;7.40;4.10;;;15.40;64.30;;;;;;5021844;28;20582;-73
2022/01/17 10:19:40;;;;;;;7.70;4.50;;;15.60;63.20;;;;;;5037702;28;20408;-78
2022/01/17 10:22:21;;;;;;;8.98;4.45;;;15.70;63.70;;;;;;5010847;28;20033;-73
2022/01/17 10:35:33;;;;;;;9.30;4.10;;;15.80;64.30;;;;;;5018646;28;20064;-77
2022/01/17 10:38:01;;;;;;;10.25;5.35;;;15.50;62.80;;;;;;5025452;28;20041;-77
2022/01/17 10:40:40;;;;;;;7.43;4.20;;;15.50;64.40;;;;;;5021745;28;20123;-73
2022/01/17 10:43:17;;;;;;;7.07;4.45;;;15.70;62.40;;;;;;5041334;28;20033;-73
2022/01/17 10:45:44;;;;;;;13.45;5.22;;;15.70;63.50;;;;;;5025151;28;20038;-75
2022/01/17 10:48:10;;;;;;;7.13;5.07;;;16.30;63.70;;;;;;5024001;28;20045;-78
2022/01/17 10:50:41;;;;;;;7.57;5.47;;;16.30;64.50;;;;;;5027964;28;20037;-73
2022/01/17 10:53:13;;;;;;;10.50;4.63;;;16.20;64.20;;;;;;5026539;28;20048;-73
2022/01/17 10:55:45;;;;;;;;;;;16.10;63.00;;;;;;5023222;28;20045;-72
2022/01/17 10:58:17;;;;;;;7.15;4.90;;;16.50;63.20;;;;;;5029811;28;19947;-72
2022/01/17 11:00:49;;;;;;;10.68;4.85;;;16.70;62.70;;;;;;5035650;28;20038;-73
2022/01/17 11:03:18;;;;;;;7.15;4.25;;;16.80;62.50;;;;;;5028483;28;20029;-78
2022/01/17 11:05:46;;;;;;;8.45;4.90;;;17.10;62.20;;;;;;5037003;28;20091;-75
2022/01/17 11:08:17;;;;;;;8.05;4.45;;;17.60;62.10;;;;;;5032083;28;20063;-74
2022/01/17 11:10:46;;;;;;;7.93;4.55;;;17.90;61.40;;;;;;5032238;28;20037;-75
2022/01/17 11:13:14;;;;;;;7.43;4.22;;;17.70;61.30;;;;;;5035842;28;20041;-74
2022/01/17 11:15:45;;;;;;;8.65;4.70;;;17.00;61.50;;;;;;5032722;28;20045;-72
2022/01/17 11:18:19;;;;;;;7.53;4.95;;;17.50;61.40;;;;;;5029055;28;20160;-75
2022/01/17 11:20:47;;;;;;;7.70;4.70;;;17.50;61.60;;;;;;5028454;28;20033;-76
2022/01/17 11:23:14;;;;;;;8.30;4.88;;;18.40;61.70;;;;;;5033312;28;20029;-77
2022/01/17 11:25:43;;;;;;;9.02;4.90;;;19.30;61.20;;;;;;5043851;28;20091;-75
2022/01/17 11:28:14;;;;;;;6.72;4.40;;;19.70;60.80;;;;;;5031549;28;20040;-72
2022/01/17 11:30:41;;;;;;;8.20;4.57;;;20.20;60.40;;;;;;5042249;28;20029;-78
2022/01/17 11:33:09;;;;;;;9.88;4.93;;;20.50;59.50;;;;;;5039691;28;20056;-74
2022/01/17 11:35:45;;;;;;;8.75;4.78;;;20.40;59.10;;;;;;5046465;28;20032;-73
2022/01/17 11:38:19;;;;;;;6.53;4.05;;;20.50;59.00;;;;;;5051647;28;20048;-77
2022/01/17 11:40:48;;;;;;;5.43;3.88;;;20.10;58.60;;;;;;4992826;28;20037;-77
2022/01/17 11:43:33;;;;;;;5.95;3.65;;;20.00;57.70;;;;;;5040730;28;20034;-75
2022/01/17 11:46:32;;;;;;;6.78;4.13;;;20.40;57.60;;;;;;5046222;28;20029;-74
2022/01/17 11:49:04;;;;;;;10.95;4.25;;;21.50;58.00;;;;;;5034031;28;20044;-78
2022/01/17 11:51:46;;;;;;;7.57;4.13;;;22.10;57.40;;;;;;5050180;28;20048;-78
2022/01/17 11:54:23;;;;;;;8.23;3.85;;;22.00;56.70;;;;;;5041268;28;20064;-78
2022/01/17 11:57:04;;;;;;;7.00;4.40;;;22.50;56.10;;;;;;5024362;28;20037;-75
2022/01/17 11:59:37;;;;;;;5.47;3.47;;;23.20;56.10;;;;;;5043326;28;20056;-74
2022/01/17 12:02:22;;;;;;;5.07;3.30;;;23.70;54.30;;;;;;5027729;28;20041;-74
2022/01/17 12:05:16;;;;;;;6.10;3.42;;;24.00;53.70;;;;;;5029881;28;20042;-77
2022/01/17 12:07:52;;;;;;;3.92;2.80;;;23.70;52.70;;;;;;5030340;28;20064;-73
2022/01/17 12:10:25;;;;;;;5.03;3.00;;;22.90;52.00;;;;;;5011122;28;20128;-75
2022/01/17 12:13:35;;;;;;;7.57;2.75;;;23.00;52.40;;;;;;5028237;28;20087;-74
2022/01/17 12:16:37;;;;;;;4.55;3.28;;;23.30;52.50;;;;;;4976888;28;20124;-74
2022/01/17 12:19:07;;;;;;;6.07;4.10;;;23.90;51.70;;;;;;4943974;28;20594;-74
2022/01/17 12:22:05;;;;;;;10.27;5.45;;;23.40;52.90;;;;;;5024950;28;20092;-72
2022/01/17 12:24:38;;;;;;;10.52;5.75;;;23.20;53.50;;;;;;5024580;28;20058;-75
2022/01/17 12:27:11;;;;;;;13.63;5.43;;;22.80;54.20;;;;;;5027755;28;20037;-74
2022/01/17 12:29:41;;;;;;;10.55;5.10;;;21.60;53.70;;;;;;5045128;28;20064;-76
2022/01/17 12:32:20;;;;;;;8.48;4.75;;;22.80;54.10;;;;;;5029117;28;20045;-75
2022/01/17 12:34:47;;;;;;;9.32;4.95;;;23.90;53.50;;;;;;5033848;28;20354;-73
2022/01/17 12:37:31;;;;;;;9.75;5.07;;;23.90;53.00;;;;;;5028320;28;20049;-74
2022/01/17 12:40:29;;;;;;;8.65;5.72;;;24.20;52.30;;;;;;5030768;28;20064;-73
2022/01/17 12:43:02;;;;;;;10.35;6.53;;;24.10;52.00;;;;;;5033065;28;20072;-77
2022/01/17 12:45:47;;;;;;;9.32;6.15;;;24.10;52.60;;;;;;5023476;28;20040;-73
2022/01/17 12:48:33;;;;;;;9.18;5.45;;;24.10;52.40;;;;;;5026480;28;20040;-76
2022/01/17 12:51:05;;;;;;;7.63;5.15;;;24.10;51.40;;;;;;5031669;28;20033;-78
2022/01/17 12:53:31;;;;;;;9.52;4.82;;;24.30;50.70;;;;;;5027533;28;20600;-74
2022/01/17 12:56:01;;;;;;;7.75;4.57;;;24.20;49.90;;;;;;5025454;28;20029;-79
2022/01/17 12:58:32;;;;;;;12.27;5.15;;;24.10;50.10;;;;;;5030919;28;20045;-77
2022/01/17 13:01:06;;;;;;;9.13;5.07;;;24.50;50.80;;;;;;5027137;28;20468;-75
2022/01/17 13:03:36;;;;;;;11.02;5.53;;;24.80;50.90;;;;;;5030296;28;20037;-74
2022/01/17 13:06:06;;;;;;;8.18;4.75;;;25.60;50.80;;;;;;5030666;28;20091;-76
2022/01/17 13:08:33;;;;;;;8.32;5.18;;;26.00;49.30;;;;;;5020391;28;20045;-75
2022/01/17 13:11:00;;;;;;;8.05;4.70;;;26.30;49.30;;;;;;5056936;28;20435;-76
2022/01/17 13:13:26;;;;;;;9.40;5.22;;;26.70;48.10;;;;;;5048449;28;20041;-73
2022/01/17 13:16:03;;;;;;;9.02;5.13;;;26.80;48.40;;;;;;5025882;28;20048;-78
2022/01/17 13:18:33;;;;;;;7.10;4.93;;;27.00;48.40;;;;;;5057830;28;20045;-78
2022/01/17 13:21:01;;;;;;;10.57;6.00;;;26.90;48.20;;;;;;5047544;28;20037;-77
2022/01/17 13:23:49;;;;;;;8.98;5.70;;;26.70;48.20;;;;;;5040328;28;20037;-77
2022/01/17 13:26:19;;;;;;;11.57;5.50;;;27.30;48.10;;;;;;5040523;28;20481;-73
2022/01/17 13:28:52;;;;;;;9.35;5.60;;;26.70;47.90;;;;;;5045706;28;20120;-74
2022/01/17 13:31:21;;;;;;;5.70;4.20;;;26.10;47.60;;;;;;5039106;28;20056;-74
2022/01/17 13:33:48;;;;;;;7.30;5.00;;;26.00;46.50;;;;;;5033421;28;20044;-73
2022/01/17 13:36:29;;;;;;;4.95;3.80;;;23.80;45.60;;;;;;5044797;28;20040;-75
2022/01/17 13:39:05;;;;;;;10.18;4.20;;;23.80;46.90;;;;;;5041286;28;20539;-75